Time;durP1;ratioP1;P1;durP2;ratioP2;P2;SDS_P1;SDS_P2;PMS_P1;PMS_P2;Temp;Humidity;BMP_temperature;BMP_pressure;BME280_temperature;BME280_humidity;BME280_pressure;Samples;Min_cycle;Max_cycle;Signal;HPM_P1;HPM_P2
2023/10/18 00:00:55;;;;;;;15.43;9.53;;;;;;;2.28;100.00;101319.34;4994008;28;20215;-70
2023/10/18 00:03:22;;;;;;;13.83;9.77;;;;;;;2.27;100.00;101317.75;4998021;28;20302;-71
2023/10/18 00:05:49;;;;;;;15.23;9.53;;;;;;;2.33;100.00;101316.78;4994442;28;20236;-71
2023/10/18 00:08:17;;;;;;;12.30;9.20;;;;;;;2.29;100.00;101326.91;4996262;28;20678;-71
2023/10/18 00:10:46;;;;;;;17.37;9.67;;;;;;;2.31;100.00;101319.63;4998226;28;20207;-71
2023/10/18 00:13:12;;;;;;;14.67;9.60;;;;;;;2.33;100.00;101322.75;4993725;28;20196;-70
2023/10/18 00:15:39;;;;;;;15.80;9.63;;;;;;;2.23;100.00;101312.28;4995850;28;20589;-70
2023/10/18 00:18:05;;;;;;;13.50;9.23;;;;;;;2.18;100.00;101309.66;4995690;28;20209;-71
2023/10/18 00:20:32;;;;;;;14.53;9.33;;;;;;;2.15;100.00;101309.38;4997877;28;20196;-71
2023/10/18 00:22:58;;;;;;;15.00;9.80;;;;;;;2.13;100.00;101312.22;4997391;28;20208;-70
2023/10/18 00:25:24;;;;;;;15.13;9.93;;;;;;;2.15;100.00;101310.16;4996886;28;20209;-70
2023/10/18 00:27:52;;;;;;;15.90;10.27;;;;;;;2.07;100.00;101309.84;4997003;28;20228;-70
2023/10/18 00:30:19;;;;;;;17.13;9.47;;;;;;;2.00;100.00;101306.66;4994135;28;20782;-71
2023/10/18 00:32:46;;;;;;;15.27;9.70;;;;;;;2.01;100.00;101308.22;4996460;28;20247;-70
2023/10/18 00:35:18;;;;;;;13.33;8.83;;;;;;;2.02;100.00;101302.78;4991191;28;20566;-71
2023/10/18 00:37:47;;;;;;;13.63;9.70;;;;;;;2.01;100.00;101298.59;4995627;28;20575;-70
2023/10/18 00:40:32;;;;;;;17.43;10.20;;;;;;;1.97;100.00;101284.50;4995231;28;20220;-71
2023/10/18 00:43:07;;;;;;;12.93;10.23;;;;;;;1.97;100.00;101292.31;4992220;28;20204;-71
2023/10/18 00:45:40;;;;;;;13.60;9.23;;;;;;;1.95;100.00;101284.00;5009131;28;20222;-71
2023/10/18 00:48:07;;;;;;;15.30;9.53;;;;;;;1.95;100.00;101286.59;4994893;28;20783;-71
2023/10/18 00:50:37;;;;;;;12.90;9.40;;;;;;;1.93;100.00;101286.03;4996886;28;20317;-71
2023/10/18 00:53:05;;;;;;;14.53;9.47;;;;;;;1.91;100.00;101282.91;4993757;28;20224;-71
2023/10/18 00:55:32;;;;;;;12.43;9.03;;;;;;;1.93;100.00;101277.47;5002652;28;20674;-71
2023/10/18 00:58:01;;;;;;;11.43;9.23;;;;;;;1.95;100.00;101286.59;4990677;28;20197;-71
2023/10/18 01:00:30;;;;;;;13.90;9.67;;;;;;;1.93;100.00;101287.88;4995457;28;20694;-71
2023/10/18 01:02:59;;;;;;;15.87;10.67;;;;;;;1.87;100.00;101281.84;4995863;28;20317;-70
2023/10/18 01:05:25;;;;;;;17.50;10.67;;;;;;;1.87;100.00;101275.88;4999624;28;20663;-71
2023/10/18 01:07:53;;;;;;;14.87;9.53;;;;;;;1.79;100.00;101273.72;4996347;28;20303;-71
2023/10/18 01:10:23;;;;;;;12.73;9.07;;;;;;;1.77;100.00;101273.97;5015091;28;20574;-71
2023/10/18 01:12:51;;;;;;;13.57;10.03;;;;;;;1.77;100.00;101281.00;5000932;28;20204;-71
2023/10/18 01:15:27;;;;;;;13.47;9.20;;;;;;;1.79;100.00;101273.72;5010419;28;20227;-70
2023/10/18 01:17:57;;;;;;;15.13;9.83;;;;;;;1.81;100.00;101267.22;4996242;28;20700;-71
2023/10/18 01:20:29;;;;;;;13.67;8.93;;;;;;;1.77;100.00;101266.16;5002525;28;20224;-71
2023/10/18 01:22:55;;;;;;;12.33;9.17;;;;;;;1.73;100.00;101261.72;4997636;28;20214;-71
2023/10/18 01:25:23;;;;;;;12.93;9.00;;;;;;;1.70;100.00;101265.59;5000722;28;20205;-71
2023/10/18 01:27:51;;;;;;;13.37;9.10;;;;;;;1.73;100.00;101253.91;5018318;28;20232;-71
2023/10/18 01:30:19;;;;;;;14.67;9.80;;;;;;;1.71;100.00;101258.59;5001549;28;20212;-71
2023/10/18 01:32:45;;;;;;;16.00;9.40;;;;;;;1.67;100.00;101252.31;5001883;28;20201;-71
2023/10/18 01:35:13;;;;;;;13.90;9.47;;;;;;;1.65;100.00;101257.75;5014978;28;20212;-70
2023/10/18 01:37:40;;;;;;;14.60;9.23;;;;;;;1.66;100.00;101261.16;5011256;28;20243;-71
2023/10/18 01:40:20;;;;;;;16.87;10.73;;;;;;;1.70;100.00;101257.00;4997477;28;20666;-70
2023/10/18 01:42:55;;;;;;;14.20;9.07;;;;;;;1.67;100.00;101250.47;4995702;28;20375;-71
2023/10/18 01:45:23;;;;;;;19.13;8.97;;;;;;;1.66;100.00;101243.69;4996023;28;20216;-71
2023/10/18 01:47:51;;;;;;;15.33;9.07;;;;;;;1.67;100.00;101252.31;5016240;28;20236;-71
2023/10/18 01:50:18;;;;;;;14.43;10.43;;;;;;;1.61;100.00;101248.09;5000183;28;20223;-70
2023/10/18 01:52:45;;;;;;;15.63;9.27;;;;;;;1.60;100.00;101243.91;4998432;28;20196;-70
2023/10/18 01:55:12;;;;;;;13.57;9.10;;;;;;;1.53;100.00;101244.13;4994463;28;20219;-70
2023/10/18 01:57:38;;;;;;;15.23;9.27;;;;;;;1.56;100.00;101248.06;5002864;28;20228;-70
2023/10/18 02:00:19;;;;;;;16.10;9.77;;;;;;;1.55;100.00;101251.66;4996347;28;20216;-71
2023/10/18 02:02:47;;;;;;;13.33;9.40;;;;;;;1.45;100.00;101247.19;5017016;28;20271;-70
2023/10/18 02:05:16;;;;;;;14.10;9.33;;;;;;;1.45;100.00;101251.63;5009336;28;20216;-71
2023/10/18 02:07:46;;;;;;;13.00;9.03;;;;;;;1.47;100.00;101252.94;4993731;28;20236;-70
2023/10/18 02:10:20;;;;;;;11.57;8.63;;;;;;;1.53;100.00;101251.16;4996531;28;20862;-71
2023/10/18 02:12:46;;;;;;;12.87;8.93;;;;;;;1.50;100.00;101249.84;5012016;28;20226;-71
2023/10/18 02:15:14;;;;;;;14.67;9.40;;;;;;;1.52;100.00;101246.97;5007991;28;20299;-71
2023/10/18 02:17:43;;;;;;;13.20;8.93;;;;;;;1.49;100.00;101243.06;5012121;28;20220;-71
2023/10/18 02:20:15;;;;;;;12.80;9.10;;;;;;;1.44;100.00;101243.03;5012316;28;20228;-71
2023/10/18 02:22:44;;;;;;;14.70;10.07;;;;;;;1.47;100.00;101242.53;4998669;28;20201;-71
2023/10/18 02:25:23;;;;;;;16.47;10.00;;;;;;;1.42;100.00;101242.50;4998222;28;20212;-71
2023/10/18 02:27:51;;;;;;;15.00;9.77;;;;;;;1.41;100.00;101234.94;5015648;28;20246;-71
2023/10/18 02:30:19;;;;;;;17.53;10.20;;;;;;;1.42;100.00;101233.91;4993394;28;20293;-71
2023/10/18 02:32:48;;;;;;;17.67;11.90;;;;;;;1.35;100.00;101238.53;5013748;28;21490;-71
2023/10/18 02:35:16;;;;;;;17.70;12.13;;;;;;;1.35;100.00;101230.72;4996309;28;20860;-71
2023/10/18 02:37:43;;;;;;;15.27;10.37;;;;;;;1.35;100.00;101222.94;5011085;28;20257;-71
2023/10/18 02:40:28;;;;;;;17.17;11.80;;;;;;;1.40;100.00;101228.16;4999615;28;20228;-70
2023/10/18 02:42:55;;;;;;;17.57;10.47;;;;;;;1.42;100.00;101226.09;5001478;28;20204;-70
2023/10/18 02:45:23;;;;;;;16.37;10.30;;;;;;;1.34;100.00;101216.94;5013597;28;21182;-70
2023/10/18 02:47:51;;;;;;;18.33;10.30;;;;;;;1.39;100.00;101211.75;4999981;28;20217;-70
2023/10/18 02:50:17;;;;;;;21.70;10.00;;;;;;;1.40;100.00;101210.72;5012917;28;20200;-70
2023/10/18 02:52:46;;;;;;;14.10;9.63;;;;;;;1.36;100.00;101204.44;4997485;28;20200;-71
2023/10/18 02:55:18;;;;;;;15.43;9.17;;;;;;;1.39;100.00;101203.97;4995553;28;20300;-70
2023/10/18 02:57:48;;;;;;;15.90;10.00;;;;;;;1.37;100.00;101202.63;5012378;28;20740;-70
2023/10/18 03:00:17;;;;;;;15.53;10.17;;;;;;;1.38;100.00;101204.19;4994827;28;20200;-70
2023/10/18 03:02:45;;;;;;;14.70;10.13;;;;;;;1.34;100.00;101206.53;5000824;28;20263;-71
2023/10/18 03:05:11;;;;;;;14.93;9.30;;;;;;;1.35;100.00;101200.28;4994803;28;20708;-71
2023/10/18 03:07:38;;;;;;;17.70;10.83;;;;;;;1.27;100.00;101194.75;5014271;28;20354;-70
2023/10/18 03:10:12;;;;;;;15.20;9.37;;;;;;;1.25;100.00;101189.78;4995811;28;20749;-70
2023/10/18 03:12:39;;;;;;;16.67;10.03;;;;;;;1.30;100.00;101200.25;4997381;28;20204;-70
2023/10/18 03:15:11;;;;;;;14.43;9.10;;;;;;;1.33;100.00;101197.16;4999077;28;20732;-71
2023/10/18 03:17:37;;;;;;;13.27;8.63;;;;;;;1.30;100.00;101200.25;5011883;28;20244;-70
2023/10/18 03:20:19;;;;;;;19.93;11.37;;;;;;;1.28;100.00;101191.91;5010758;28;20715;-70
2023/10/18 03:22:48;;;;;;;29.63;16.60;;;;;;;1.32;100.00;101193.00;4994216;28;20212;-71
2023/10/18 03:25:16;;;;;;;24.30;14.10;;;;;;;1.37;100.00;101192.22;4993271;28;20235;-70
2023/10/18 03:27:49;;;;;;;26.30;14.57;;;;;;;1.31;100.00;101195.84;4995087;28;20243;-70
2023/10/18 03:30:18;;;;;;;34.67;16.30;;;;;;;1.24;100.00;101197.84;4994131;28;20618;-71
2023/10/18 03:32:49;;;;;;;46.30;18.87;;;;;;;1.20;100.00;101189.75;5018963;28;20286;-71
2023/10/18 03:35:20;;;;;;;73.70;26.33;;;;;;;1.20;100.00;101191.59;4993660;28;20234;-71
2023/10/18 03:37:46;;;;;;;49.37;18.77;;;;;;;1.19;100.00;101193.41;4995889;28;20231;-70
2023/10/18 03:40:19;;;;;;;28.40;13.53;;;;;;;1.03;100.00;101194.31;4993352;28;20472;-70
2023/10/18 03:42:50;;;;;;;25.33;12.67;;;;;;;1.07;100.00;101192.00;5016027;28;20203;-70
2023/10/18 03:45:21;;;;;;;18.43;10.47;;;;;;;1.05;100.00;101200.03;4995421;28;20205;-70
2023/10/18 03:47:57;;;;;;;17.47;10.97;;;;;;;1.05;100.00;101191.47;4993219;28;20378;-71
2023/10/18 03:50:29;;;;;;;15.10;9.90;;;;;;;1.01;100.00;101185.97;5009061;28;20478;-71
2023/10/18 03:52:57;;;;;;;16.17;9.43;;;;;;;1.06;100.00;101183.44;5011381;28;20246;-71
2023/10/18 03:55:36;;;;;;;20.67;10.73;;;;;;;1.04;100.00;101190.66;5011987;28;20696;-70
2023/10/18 03:58:04;;;;;;;38.70;16.83;;;;;;;1.07;100.00;101186.78;4995434;28;20200;-71
2023/10/18 04:00:37;;;;;;;39.97;17.77;;;;;;;1.04;100.00;101177.66;5014875;28;20232;-71
2023/10/18 04:03:08;;;;;;;35.57;16.27;;;;;;;1.01;100.00;101174.78;4999616;28;20292;-70
2023/10/18 04:05:41;;;;;;;31.40;16.10;;;;;;;1.08;100.00;101167.56;4994950;28;20578;-70
2023/10/18 04:08:07;;;;;;;29.40;14.37;;;;;;;1.04;100.00;101172.47;4995641;28;20399;-71
2023/10/18 04:10:36;;;;;;;31.57;13.80;;;;;;;1.03;100.00;101176.09;4998994;28;20211;-71
2023/10/18 04:13:03;;;;;;;30.40;14.93;;;;;;;1.02;100.00;101168.53;4993341;28;20717;-71
2023/10/18 04:15:37;;;;;;;31.27;14.03;;;;;;;1.02;100.00;101171.16;4996464;28;20205;-71
2023/10/18 04:18:12;;;;;;;31.03;15.43;;;;;;;1.01;100.00;101170.38;4996721;28;20232;-70
2023/10/18 04:20:46;;;;;;;28.23;15.23;;;;;;;0.97;100.00;101163.31;4990947;28;20200;-71
2023/10/18 04:23:18;;;;;;;34.27;16.63;;;;;;;1.05;100.00;101163.63;4991012;28;20701;-71
2023/10/18 04:25:52;;;;;;;29.70;14.27;;;;;;;1.07;100.00;101169.38;5011600;28;20282;-71
2023/10/18 04:28:19;;;;;;;34.27;18.50;;;;;;;1.01;100.00;101164.38;4990628;28;20251;-70
2023/10/18 04:30:45;;;;;;;44.73;25.23;;;;;;;1.04;100.00;101161.31;4999365;28;20209;-70
2023/10/18 04:33:24;;;;;;;43.00;24.03;;;;;;;1.00;100.00;101158.38;4996238;28;20232;-70
2023/10/18 04:35:55;;;;;;;47.50;25.80;;;;;;;0.92;100.00;101163.25;4997442;28;20231;-71
2023/10/18 04:38:23;;;;;;;52.03;29.83;;;;;;;0.91;100.00;101159.91;4991654;28;20277;-70
2023/10/18 04:40:52;;;;;;;73.57;40.10;;;;;;;0.98;100.00;101163.06;4995180;28;20210;-71
2023/10/18 04:43:22;;;;;;;93.60;47.30;;;;;;;1.01;100.00;101167.00;5010481;28;20236;-71
2023/10/18 04:45:54;;;;;;;70.90;39.17;;;;;;;0.95;100.00;101155.75;4994883;28;20240;-71
2023/10/18 04:48:43;;;;;;;51.80;29.23;;;;;;;0.97;100.00;101150.31;4995061;28;20718;-70
2023/10/18 04:51:07;;;;;;;72.13;38.83;;;;;;;0.96;100.00;101149.53;4999304;28;20382;-69
2023/10/18 04:53:34;;;;;;;53.20;30.33;;;;;;;0.93;100.00;101149.22;4996760;28;20665;-71
2023/10/18 04:56:01;;;;;;;77.27;44.23;;;;;;;0.91;100.00;101149.50;4996896;28;20228;-71
2023/10/18 04:58:29;;;;;;;83.53;44.57;;;;;;;0.88;100.00;101146.63;5028393;28;20226;-71
2023/10/18 05:00:57;;;;;;;76.30;41.00;;;;;;;0.86;100.00;101151.25;5029339;28;20497;-69
2023/10/18 05:03:30;;;;;;;78.90;41.93;;;;;;;0.92;100.00;101151.06;5031095;28;20349;-70
2023/10/18 05:05:56;;;;;;;66.10;35.57;;;;;;;0.82;100.00;101144.97;5036100;28;20243;-71
2023/10/18 05:08:24;;;;;;;51.73;28.93;;;;;;;0.79;100.00;101140.28;5034063;28;20292;-71
2023/10/18 05:10:52;;;;;;;63.73;34.57;;;;;;;0.78;100.00;101139.50;5033260;28;20645;-70
2023/10/18 05:13:32;;;;;;;53.33;29.40;;;;;;;0.79;100.00;101137.69;5037439;28;20203;-70
2023/10/18 05:16:01;;;;;;;68.80;37.87;;;;;;;0.75;100.00;101149.59;5035533;28;20268;-70
2023/10/18 05:18:30;;;;;;;56.53;28.13;;;;;;;0.73;100.00;101143.88;5041072;28;22878;-71
2023/10/18 05:20:57;;;;;;;28.03;16.33;;;;;;;0.73;100.00;101136.84;5039025;28;20635;-71
2023/10/18 05:23:26;;;;;;;75.17;43.70;;;;;;;0.67;100.00;101130.03;5036452;28;20202;-71
2023/10/18 05:26:04;;;;;;;49.27;26.70;;;;;;;0.74;100.00;101138.41;5039850;28;20222;-70
2023/10/18 05:28:42;;;;;;;74.80;42.53;;;;;;;0.76;100.00;101138.97;5038336;28;20215;-70
2023/10/18 05:31:27;;;;;;;66.90;37.03;;;;;;;0.77;100.00;101132.72;5038192;28;20211;-70
2023/10/18 05:34:01;;;;;;;67.77;39.60;;;;;;;0.76;100.00;101131.19;5041785;28;20704;-71
2023/10/18 05:36:42;;;;;;;95.50;54.50;;;;;;;0.68;100.00;101142.00;5039087;28;20230;-70
2023/10/18 05:39:27;;;;;;;58.67;36.57;;;;;;;0.74;100.00;101133.22;5038318;28;20269;-70
2023/10/18 05:41:59;;;;;;;57.93;34.33;;;;;;;0.74;100.00;101135.06;5039755;28;20566;-71
2023/10/18 05:44:27;;;;;;;57.23;30.20;;;;;;;0.70;100.00;101136.56;5039025;28;23213;-70
2023/10/18 05:46:54;;;;;;;59.30;36.67;;;;;;;0.75;100.00;101137.41;5040377;28;20245;-70
2023/10/18 05:49:24;;;;;;;48.23;28.10;;;;;;;0.73;100.00;101144.66;5038055;28;20223;-71
2023/10/18 05:51:54;;;;;;;86.80;52.33;;;;;;;0.74;100.00;101141.00;5039031;28;20286;-70
2023/10/18 05:54:24;;;;;;;64.63;38.83;;;;;;;0.77;100.00;101137.94;5033390;28;20410;-71
2023/10/18 05:56:51;;;;;;;70.43;39.97;;;;;;;0.82;100.00;101152.78;5043222;28;20223;-71
2023/10/18 05:59:31;;;;;;;73.50;44.47;;;;;;;0.80;100.00;101147.06;5038861;28;20556;-71
2023/10/18 06:02:00;;;;;;;95.37;55.37;;;;;;;0.81;100.00;101146.00;5034657;28;20580;-71
2023/10/18 06:04:28;;;;;;;66.80;40.03;;;;;;;0.80;100.00;101147.06;5036032;28;20217;-70
2023/10/18 06:06:58;;;;;;;40.43;26.33;;;;;;;0.83;100.00;101157.72;5041674;28;20566;-70
2023/10/18 06:09:32;;;;;;;77.33;45.60;;;;;;;0.89;100.00;101150.78;5038185;28;20219;-71
2023/10/18 06:12:00;;;;;;;56.80;34.30;;;;;;;0.91;100.00;101146.91;5041811;28;20198;-69
2023/10/18 06:14:33;;;;;;;43.60;24.40;;;;;;;0.91;100.00;101146.91;5038384;28;20207;-72
2023/10/18 06:17:07;;;;;;;47.50;29.23;;;;;;;0.90;100.00;101152.34;5039874;28;20306;-72
2023/10/18 06:19:36;;;;;;;30.47;17.93;;;;;;;0.86;100.00;101152.06;5037553;28;20921;-72
2023/10/18 06:22:14;;;;;;;63.50;38.97;;;;;;;0.85;100.00;101154.91;5042383;28;20204;-72
2023/10/18 06:24:45;;;;;;;48.97;31.60;;;;;;;0.88;100.00;101157.78;5044697;28;20202;-72
2023/10/18 06:27:15;;;;;;;48.83;29.57;;;;;;;0.91;100.00;101159.91;5038505;28;20245;-72
2023/10/18 06:29:43;;;;;;;51.83;31.53;;;;;;;0.97;100.00;101158.91;5039878;28;20223;-71
2023/10/18 06:32:13;;;;;;;30.73;17.07;;;;;;;1.06;100.00;101151.44;5038785;28;20628;-71
2023/10/18 06:34:43;;;;;;;49.20;29.40;;;;;;;1.07;100.00;101153.78;5039822;28;20580;-71
2023/10/18 06:37:09;;;;;;;49.00;27.27;;;;;;;1.13;100.00;101152.78;5038216;28;20354;-72
2023/10/18 06:39:37;;;;;;;48.27;27.50;;;;;;;1.12;100.00;101156.44;5039039;28;20279;-72
2023/10/18 06:42:07;;;;;;;50.90;29.37;;;;;;;1.18;100.00;101150.22;5039789;28;20294;-71
2023/10/18 06:44:33;;;;;;;44.50;27.20;;;;;;;1.13;100.00;101133.78;5036209;28;20547;-72
2023/10/18 06:47:01;;;;;;;44.90;25.93;;;;;;;1.21;100.00;101138.53;5039225;28;20223;-72
2023/10/18 06:49:27;;;;;;;44.97;25.90;;;;;;;1.23;100.00;101133.84;5039363;28;20692;-72
2023/10/18 06:51:54;;;;;;;41.90;25.70;;;;;;;1.32;100.00;101140.97;5038815;28;20207;-72
2023/10/18 06:54:30;;;;;;;44.80;27.47;;;;;;;1.45;100.00;101144.94;5040071;28;20636;-72
2023/10/18 06:56:57;;;;;;;30.60;18.10;;;;;;;1.58;100.00;101155.69;5039708;28;20307;-71
2023/10/18 06:59:27;;;;;;;49.07;30.13;;;;;;;1.65;100.00;101145.03;5039243;28;20712;-72
2023/10/18 07:01:57;;;;;;;45.03;26.60;;;;;;;1.60;100.00;101138.00;5036639;28;20722;-72
2023/10/18 07:04:28;;;;;;;28.90;18.40;;;;;;;1.63;100.00;101134.09;5036516;28;20207;-72
2023/10/18 07:06:54;;;;;;;42.37;26.53;;;;;;;1.65;100.00;101126.81;5036390;28;20246;-72
2023/10/18 07:09:31;;;;;;;26.90;15.53;;;;;;;1.85;100.00;101126.91;5036010;28;20591;-72
2023/10/18 07:12:03;;;;;;;60.83;36.27;;;;;;;1.99;100.00;101130.63;5033985;28;20284;-71
2023/10/18 07:14:31;;;;;;;49.77;29.07;;;;;;;2.09;100.00;101131.44;5035983;28;20218;-72
2023/10/18 07:17:00;;;;;;;45.00;24.80;;;;;;;2.24;100.00;101133.31;5033535;28;20234;-71
2023/10/18 07:19:29;;;;;;;43.60;25.50;;;;;;;2.23;100.00;101131.75;5036751;28;20204;-72
2023/10/18 07:21:56;;;;;;;46.87;26.70;;;;;;;2.29;100.00;101133.31;5036975;28;20570;-71
2023/10/18 07:24:27;;;;;;;36.50;21.70;;;;;;;2.39;100.00;101133.34;5032820;28;20204;-72
2023/10/18 07:26:59;;;;;;;32.50;18.30;;;;;;;2.46;100.00;101126.84;5036108;28;20916;-72
2023/10/18 07:29:27;;;;;;;32.57;17.27;;;;;;;2.52;100.00;101119.78;5036037;28;20286;-72
2023/10/18 07:31:59;;;;;;;30.63;18.57;;;;;;;2.65;100.00;101122.66;5037959;28;20210;-72
2023/10/18 07:34:28;;;;;;;27.37;14.90;;;;;;;2.71;100.00;101121.63;5024777;28;20210;-72
2023/10/18 07:36:55;;;;;;;45.40;26.87;;;;;;;2.83;100.00;101124.78;5038383;28;20223;-72
2023/10/18 07:39:24;;;;;;;30.10;16.23;;;;;;;2.91;100.00;101126.09;5036836;28;20199;-72
2023/10/18 07:41:51;;;;;;;33.93;18.23;;;;;;;3.02;100.00;101117.22;5038443;28;20460;-72
2023/10/18 07:44:17;;;;;;;35.73;19.57;;;;;;;3.13;100.00;101119.56;5039489;28;20226;-72
2023/10/18 07:46:44;;;;;;;30.20;15.23;;;;;;;3.20;100.00;101114.03;5039097;28;20729;-71
2023/10/18 07:49:14;;;;;;;48.03;26.43;;;;;;;3.33;100.00;101110.91;5034936;28;20257;-72
2023/10/18 07:51:49;;;;;;;30.37;15.27;;;;;;;3.37;100.00;101119.78;5042035;28;20199;-72
2023/10/18 07:54:17;;;;;;;37.70;20.67;;;;;;;3.47;100.00;101104.84;5038905;28;20296;-72
2023/10/18 07:56:49;;;;;;;33.57;20.03;;;;;;;3.54;100.00;101105.38;5037789;28;20226;-69
2023/10/18 07:59:28;;;;;;;32.53;19.87;;;;;;;3.68;100.00;101108.97;5037221;28;20219;-70
2023/10/18 08:02:09;;;;;;;34.63;17.57;;;;;;;3.80;100.00;101109.47;5036505;28;20199;-71
2023/10/18 08:04:37;;;;;;;34.13;18.20;;;;;;;3.93;100.00;101105.47;5035967;28;20219;-72
2023/10/18 08:07:04;;;;;;;37.57;18.07;;;;;;;3.99;100.00;101099.94;5039736;28;20234;-71
2023/10/18 08:09:31;;;;;;;33.97;15.70;;;;;;;4.13;100.00;101100.94;5036102;28;20280;-72
2023/10/18 08:12:04;;;;;;;33.83;18.43;;;;;;;4.21;100.00;101100.38;5039611;28;20210;-72
2023/10/18 08:14:31;;;;;;;31.90;16.63;;;;;;;4.30;100.00;101098.72;5037344;28;20347;-72
2023/10/18 08:16:58;;;;;;;32.87;17.93;;;;;;;4.44;100.00;101109.34;5037574;28;20236;-71
2023/10/18 08:19:25;;;;;;;33.83;18.03;;;;;;;4.55;100.00;101106.41;5034793;28;20226;-70
2023/10/18 08:22:21;;;;;;;33.97;18.33;;;;;;;4.67;100.00;101103.47;5039181;28;20203;-71
2023/10/18 08:24:50;;;;;;;37.47;20.03;;;;;;;4.82;100.00;101098.13;5040030;28;20203;-72
2023/10/18 08:27:17;;;;;;;31.40;17.90;;;;;;;4.91;100.00;101084.16;5037935;28;20231;-71
2023/10/18 08:29:46;;;;;;;34.07;17.93;;;;;;;5.04;100.00;101093.19;5036774;28;20227;-72
2023/10/18 08:32:16;;;;;;;42.23;18.63;;;;;;;5.15;100.00;101087.59;5037751;28;20210;-72
2023/10/18 08:34:43;;;;;;;36.93;18.37;;;;;;;5.26;100.00;101090.88;5034563;28;20211;-72
2023/10/18 08:37:13;;;;;;;36.73;19.90;;;;;;;5.39;100.00;101085.00;5036932;28;20230;-71
2023/10/18 08:39:40;;;;;;;39.27;20.47;;;;;;;5.49;100.00;101079.66;5038296;28;20204;-71
2023/10/18 08:42:10;;;;;;;43.53;19.27;;;;;;;5.59;100.00;101075.06;5035673;28;20218;-71
2023/10/18 08:44:39;;;;;;;42.40;22.43;;;;;;;5.73;100.00;101081.19;5036650;28;21476;-71
2023/10/18 08:47:13;;;;;;;42.30;21.80;;;;;;;5.84;100.00;101072.16;5036696;28;20637;-71
2023/10/18 08:49:45;;;;;;;42.53;20.10;;;;;;;5.96;100.00;101069.91;5034327;28;20221;-70
2023/10/18 08:52:16;;;;;;;41.87;19.90;;;;;;;6.10;100.00;101070.75;5039055;28;20236;-71
2023/10/18 08:54:44;;;;;;;40.57;19.97;;;;;;;6.21;100.00;101061.69;5034511;28;20667;-71
2023/10/18 08:57:11;;;;;;;43.67;21.30;;;;;;;6.34;100.00;101065.44;5033461;28;20231;-70
2023/10/18 08:59:46;;;;;;;40.80;20.47;;;;;;;6.45;100.00;101072.09;5035401;28;20294;-71
2023/10/18 09:02:17;;;;;;;47.23;22.03;;;;;;;6.53;100.00;101061.72;5038463;28;20281;-70
2023/10/18 09:04:44;;;;;;;41.67;22.17;;;;;;;6.70;100.00;101054.13;5034933;28;20564;-71
2023/10/18 09:07:42;;;;;;;40.97;21.43;;;;;;;6.83;100.00;101060.47;5040433;28;20431;-70
2023/10/18 09:10:13;;;;;;;44.10;21.87;;;;;;;6.96;100.00;101057.06;5034372;28;20227;-71
2023/10/18 09:15:28;;;;;;;44.37;21.63;;;;;;;7.21;100.00;101062.66;5034754;28;20289;-71
2023/10/18 09:17:57;;;;;;;40.27;20.07;;;;;;;7.31;100.00;101059.06;5036870;28;20217;-71
2023/10/18 09:20:26;;;;;;;37.63;19.13;;;;;;;7.42;100.00;101050.69;5033241;28;20207;-71
2023/10/18 09:22:54;;;;;;;37.20;20.27;;;;;;;7.55;100.00;101051.75;5033560;28;20203;-71
2023/10/18 09:25:24;;;;;;;42.30;20.97;;;;;;;7.64;100.00;101045.53;5036899;28;20207;-71
2023/10/18 09:27:51;;;;;;;43.70;21.50;;;;;;;7.75;100.00;101048.69;5042397;28;20323;-71
2023/10/18 09:30:19;;;;;;;41.30;20.93;;;;;;;7.79;100.00;101036.53;5038855;28;20693;-71
2023/10/18 09:32:45;;;;;;;38.33;20.43;;;;;;;7.90;100.00;101036.03;5039768;28;20608;-71
2023/10/18 09:35:12;;;;;;;34.37;18.10;;;;;;;7.98;100.00;101031.91;5042013;28;20215;-71
2023/10/18 09:37:38;;;;;;;31.17;19.00;;;;;;;8.05;100.00;101032.28;5037771;28;21446;-71
2023/10/18 09:40:11;;;;;;;31.90;18.30;;;;;;;8.11;100.00;101037.13;5043713;28;20210;-70
2023/10/18 09:42:38;;;;;;;29.53;16.60;;;;;;;8.23;100.00;101040.03;5036829;28;20235;-71
2023/10/18 09:45:08;;;;;;;25.23;14.33;;;;;;;8.31;100.00;101033.28;5039911;28;20688;-70
2023/10/18 09:47:36;;;;;;;19.67;13.60;;;;;;;8.38;100.00;101034.41;5037158;28;20655;-71
2023/10/18 09:50:06;;;;;;;19.17;13.03;;;;;;;8.46;100.00;101032.91;5037579;28;20248;-71
2023/10/18 09:52:34;;;;;;;17.80;11.73;;;;;;;8.59;100.00;101045.25;5037216;28;20716;-71
2023/10/18 09:55:02;;;;;;;15.77;11.43;;;;;;;8.68;100.00;101046.84;5040321;28;20395;-71
2023/10/18 09:57:35;;;;;;;18.13;10.47;;;;;;;8.77;100.00;101039.78;5039698;28;20217;-72
2023/10/18 10:00:08;;;;;;;11.87;8.27;;;;;;;8.87;100.00;101034.25;5041079;28;20200;-71
2023/10/18 10:02:40;;;;;;;11.10;8.40;;;;;;;9.00;100.00;101037.88;5036509;28;20216;-71
2023/10/18 10:05:24;;;;;;;14.07;8.87;;;;;;;9.08;100.00;101027.38;5038544;28;20217;-70
2023/10/18 10:07:52;;;;;;;14.37;9.47;;;;;;;9.15;100.00;101021.66;5037729;28;20220;-71
2023/10/18 10:10:24;;;;;;;19.47;14.23;;;;;;;9.18;100.00;101021.06;5041064;28;20229;-71
2023/10/18 10:12:57;;;;;;;22.47;19.07;;;;;;;9.22;100.00;101025.41;5040048;28;20241;-70
2023/10/18 10:15:28;;;;;;;17.50;14.87;;;;;;;9.32;100.00;101008.56;5038716;28;20576;-71
2023/10/18 10:17:58;;;;;;;13.33;8.27;;;;;;;9.40;94.79;101011.22;5037393;28;20231;-71
2023/10/18 10:20:31;;;;;;;9.73;6.80;;;;;;;9.52;95.46;100998.19;5036439;28;20206;-71
2023/10/18 10:23:02;;;;;;;9.00;6.57;;;;;;;9.64;94.10;100987.81;5039380;28;20218;-71
2023/10/18 10:25:31;;;;;;;6.53;5.60;;;;;;;9.77;90.95;100997.47;5038328;28;20627;-71
2023/10/18 10:28:13;;;;;;;8.33;6.23;;;;;;;9.88;88.82;100996.06;5039180;28;20240;-71
2023/10/18 10:30:43;;;;;;;6.83;5.03;;;;;;;9.98;89.28;100985.19;5038182;28;20284;-71
2023/10/18 10:33:12;;;;;;;6.57;5.13;;;;;;;10.07;88.55;100988.66;5042801;28;20294;-71
2023/10/18 10:35:44;;;;;;;7.20;4.73;;;;;;;10.16;79.11;100984.16;5036802;28;20258;-71
2023/10/18 10:38:13;;;;;;;7.20;5.00;;;;;;;10.26;82.69;100983.81;5042462;28;20269;-71
2023/10/18 10:40:44;;;;;;;7.03;5.20;;;;;;;10.34;84.80;100983.03;5035788;28;20199;-72
2023/10/18 10:43:12;;;;;;;7.23;4.50;;;;;;;10.42;79.02;100974.31;5035876;28;20265;-70
2023/10/18 10:45:43;;;;;;;6.47;4.90;;;;;;;10.50;81.89;100976.16;5038124;28;20369;-70
2023/10/18 10:48:30;;;;;;;11.63;4.87;;;;;;;10.59;79.89;100966.34;5039283;28;20230;-71
2023/10/18 10:51:06;;;;;;;6.23;4.57;;;;;;;10.62;80.07;100965.69;5027273;28;20334;-70
2023/10/18 10:53:34;;;;;;;5.27;4.30;;;;;;;10.68;81.58;100961.03;5036877;28;20412;-71
2023/10/18 10:56:06;;;;;;;5.53;4.60;;;;;;;10.72;80.07;100954.78;5037852;28;20218;-70
2023/10/18 10:58:38;;;;;;;5.17;4.33;;;;;;;10.79;81.74;100947.16;5037501;28;20222;-71
2023/10/18 11:01:05;;;;;;;5.53;4.43;;;;;;;10.84;75.78;100944.34;5039787;28;20391;-71
2023/10/18 11:03:51;;;;;;;6.23;4.73;;;;;;;10.90;82.50;100943.06;5034656;28;20216;-71
2023/10/18 11:06:23;;;;;;;6.53;4.37;;;;;;;10.96;73.11;100922.50;5031239;28;20223;-71
2023/10/18 11:08:51;;;;;;;5.70;3.80;;;;;;;11.01;78.33;100923.13;5036325;28;20257;-71
2023/10/18 11:11:20;;;;;;;6.70;4.10;;;;;;;11.05;75.35;100931.97;5037357;28;20223;-71
2023/10/18 11:13:48;;;;;;;4.40;3.67;;;;;;;11.11;76.11;100922.75;5037822;28;20580;-71
2023/10/18 11:16:17;;;;;;;6.13;4.00;;;;;;;11.18;75.96;100917.72;5036666;28;20234;-71
2023/10/18 11:18:48;;;;;;;6.10;4.10;;;;;;;11.22;74.35;100921.28;5036789;28;20261;-70
2023/10/18 11:21:21;;;;;;;4.63;4.00;;;;;;;11.27;71.01;100917.66;5035119;28;20217;-71
2023/10/18 11:23:50;;;;;;;5.77;4.03;;;;;;;11.31;73.43;100914.06;5032404;28;20315;-70
2023/10/18 11:26:24;;;;;;;6.30;4.30;;;;;;;11.35;71.72;100914.19;5037185;28;20223;-69
2023/10/18 11:28:55;;;;;;;6.83;4.20;;;;;;;11.41;70.31;100912.91;5031959;28;20212;-71